sensor_id;sensor_type;location;lat;lon;timestamp;pressure;altitude;pressure_sealevel;temperature;humidity
72262;BME280;60173;52.112;8.648;2023-06-14T00:02:13;100589.75;;;16.52;50.38
72262;BME280;60173;52.112;8.648;2023-06-14T00:04:39;100597.28;;;16.55;49.89
72262;BME280;60173;52.112;8.648;2023-06-14T00:07:06;100597.44;;;16.38;50.95
72262;BME280;60173;52.112;8.648;2023-06-14T00:09:32;100601.81;;;16.30;51.20
72262;BME280;60173;52.112;8.648;2023-06-14T00:11:59;100599.31;;;16.16;51.80
72262;BME280;60173;52.112;8.648;2023-06-14T00:14:25;100592.25;;;16.15;51.05
72262;BME280;60173;52.112;8.648;2023-06-14T00:16:51;100598.66;;;16.19;51.28
72262;BME280;60173;52.112;8.648;2023-06-14T00:19:18;100600.28;;;16.20;50.90
72262;BME280;60173;52.112;8.648;2023-06-14T00:21:45;100602.34;;;16.23;50.73
72262;BME280;60173;52.112;8.648;2023-06-14T00:24:11;100607.09;;;16.14;51.10
72262;BME280;60173;52.112;8.648;2023-06-14T00:26:38;100600.84;;;16.35;50.38
72262;BME280;60173;52.112;8.648;2023-06-14T00:29:04;100597.88;;;16.40;50.33
72262;BME280;60173;52.112;8.648;2023-06-14T00:31:31;100598.41;;;16.54;49.70
72262;BME280;60173;52.112;8.648;2023-06-14T00:33:57;100603.97;;;16.66;49.24
72262;BME280;60173;52.112;8.648;2023-06-14T00:36:23;100604.03;;;16.37;50.26
72262;BME280;60173;52.112;8.648;2023-06-14T00:38:50;100606.81;;;16.28;50.46
72262;BME280;60173;52.112;8.648;2023-06-14T00:41:16;100605.84;;;16.33;49.97
72262;BME280;60173;52.112;8.648;2023-06-14T00:43:43;100615.47;;;16.39;50.05
72262;BME280;60173;52.112;8.648;2023-06-14T00:46:09;100604.31;;;16.44;49.90
72262;BME280;60173;52.112;8.648;2023-06-14T00:48:37;100614.59;;;16.47;49.97
72262;BME280;60173;52.112;8.648;2023-06-14T00:51:04;100614.94;;;16.45;50.37
72262;BME280;60173;52.112;8.648;2023-06-14T00:53:31;100608.59;;;16.54;49.60
72262;BME280;60173;52.112;8.648;2023-06-14T00:55:58;100605.75;;;16.20;50.73
72262;BME280;60173;52.112;8.648;2023-06-14T00:58:24;100620.03;;;16.05;50.84
72262;BME280;60173;52.112;8.648;2023-06-14T01:00:51;100609.00;;;16.14;51.18
72262;BME280;60173;52.112;8.648;2023-06-14T01:03:17;100611.50;;;16.27;50.29
72262;BME280;60173;52.112;8.648;2023-06-14T01:05:44;100620.19;;;16.09;50.88
72262;BME280;60173;52.112;8.648;2023-06-14T01:08:31;100621.53;;;16.23;50.46
72262;BME280;60173;52.112;8.648;2023-06-14T01:11:10;100608.59;;;16.33;50.13
72262;BME280;60173;52.112;8.648;2023-06-14T01:13:39;100613.50;;;16.18;50.41
72262;BME280;60173;52.112;8.648;2023-06-14T01:16:08;100608.28;;;16.25;50.41
72262;BME280;60173;52.112;8.648;2023-06-14T01:18:34;100607.63;;;16.28;50.39
72262;BME280;60173;52.112;8.648;2023-06-14T01:21:01;100610.84;;;16.31;50.20
72262;BME280;60173;52.112;8.648;2023-06-14T01:23:28;100617.59;;;16.33;50.24
72262;BME280;60173;52.112;8.648;2023-06-14T01:25:54;100621.06;;;16.21;50.80
72262;BME280;60173;52.112;8.648;2023-06-14T01:28:21;100619.34;;;16.08;51.10
72262;BME280;60173;52.112;8.648;2023-06-14T01:30:52;100626.72;;;16.16;50.97
72262;BME280;60173;52.112;8.648;2023-06-14T01:33:26;100621.88;;;15.92;51.76
72262;BME280;60173;52.112;8.648;2023-06-14T01:35:53;100621.16;;;15.74;51.83
72262;BME280;60173;52.112;8.648;2023-06-14T01:38:25;100620.41;;;15.95;51.57
72262;BME280;60173;52.112;8.648;2023-06-14T01:40:54;100624.25;;;15.94;51.44
72262;BME280;60173;52.112;8.648;2023-06-14T01:43:22;100619.22;;;15.75;52.31
72262;BME280;60173;52.112;8.648;2023-06-14T01:45:50;100620.97;;;15.79;52.20
72262;BME280;60173;52.112;8.648;2023-06-14T01:48:19;100620.69;;;15.64;53.00
72262;BME280;60173;52.112;8.648;2023-06-14T01:50:48;100616.47;;;15.66;52.54
72262;BME280;60173;52.112;8.648;2023-06-14T01:53:14;100622.03;;;15.49;53.01
72262;BME280;60173;52.112;8.648;2023-06-14T01:55:41;100624.25;;;15.55;52.74
72262;BME280;60173;52.112;8.648;2023-06-14T01:58:07;100636.16;;;15.68;52.63
72262;BME280;60173;52.112;8.648;2023-06-14T02:00:33;100627.75;;;15.73;52.32
72262;BME280;60173;52.112;8.648;2023-06-14T02:03:00;100629.69;;;15.64;52.33
72262;BME280;60173;52.112;8.648;2023-06-14T02:05:27;100631.81;;;15.50;53.16
72262;BME280;60173;52.112;8.648;2023-06-14T02:07:53;100634.09;;;15.48;53.24
72262;BME280;60173;52.112;8.648;2023-06-14T02:10:20;100639.91;;;15.46;53.32
72262;BME280;60173;52.112;8.648;2023-06-14T02:12:46;100645.56;;;15.32;53.88
72262;BME280;60173;52.112;8.648;2023-06-14T02:15:13;100646.03;;;15.34;53.99
72262;BME280;60173;52.112;8.648;2023-06-14T02:17:39;100643.13;;;15.40;53.80
72262;BME280;60173;52.112;8.648;2023-06-14T02:20:06;100644.91;;;15.35;54.04
72262;BME280;60173;52.112;8.648;2023-06-14T02:22:33;100648.28;;;15.32;54.81
72262;BME280;60173;52.112;8.648;2023-06-14T02:24:59;100660.72;;;15.12;55.32
72262;BME280;60173;52.112;8.648;2023-06-14T02:27:28;100659.44;;;14.92;55.85
72262;BME280;60173;52.112;8.648;2023-06-14T02:29:54;100659.13;;;14.85;56.32
72262;BME280;60173;52.112;8.648;2023-06-14T02:32:21;100666.38;;;14.81;56.58
72262;BME280;60173;52.112;8.648;2023-06-14T02:34:47;100664.44;;;14.73;56.76
72262;BME280;60173;52.112;8.648;2023-06-14T02:37:13;100662.78;;;14.55;57.24
72262;BME280;60173;52.112;8.648;2023-06-14T02:39:40;100657.13;;;14.42;57.77
72262;BME280;60173;52.112;8.648;2023-06-14T02:42:06;100667.56;;;14.40;58.09
72262;BME280;60173;52.112;8.648;2023-06-14T02:44:33;100665.31;;;14.42;57.88
72262;BME280;60173;52.112;8.648;2023-06-14T02:46:59;100667.41;;;14.45;57.96
72262;BME280;60173;52.112;8.648;2023-06-14T02:49:26;100666.59;;;14.36;58.39
72262;BME280;60173;52.112;8.648;2023-06-14T02:51:52;100663.63;;;14.07;59.73
72262;BME280;60173;52.112;8.648;2023-06-14T02:54:18;100666.44;;;13.84;60.66
72262;BME280;60173;52.112;8.648;2023-06-14T02:56:45;100664.53;;;13.93;60.30
72262;BME280;60173;52.112;8.648;2023-06-14T02:59:11;100666.16;;;13.94;59.77
72262;BME280;60173;52.112;8.648;2023-06-14T03:01:38;100669.72;;;14.04;59.56
72262;BME280;60173;52.112;8.648;2023-06-14T03:04:04;100661.16;;;13.96;59.70
72262;BME280;60173;52.112;8.648;2023-06-14T03:06:30;100668.09;;;14.02;59.74
72262;BME280;60173;52.112;8.648;2023-06-14T03:08:57;100673.75;;;14.06;59.70
72262;BME280;60173;52.112;8.648;2023-06-14T03:11:24;100673.84;;;13.92;60.32
72262;BME280;60173;52.112;8.648;2023-06-14T03:13:51;100677.00;;;13.77;60.72
72262;BME280;60173;52.112;8.648;2023-06-14T03:16:18;100671.72;;;13.81;60.40
72262;BME280;60173;52.112;8.648;2023-06-14T03:18:44;100677.97;;;13.81;60.90
72262;BME280;60173;52.112;8.648;2023-06-14T03:21:11;100675.72;;;13.74;61.05
72262;BME280;60173;52.112;8.648;2023-06-14T03:23:37;100682.22;;;13.96;60.14
72262;BME280;60173;52.112;8.648;2023-06-14T03:26:03;100682.81;;;13.84;60.68
72262;BME280;60173;52.112;8.648;2023-06-14T03:28:30;100680.00;;;13.67;61.63
72262;BME280;60173;52.112;8.648;2023-06-14T03:30:56;100686.25;;;13.67;61.62
72262;BME280;60173;52.112;8.648;2023-06-14T03:33:23;100678.69;;;13.64;61.90
72262;BME280;60173;52.112;8.648;2023-06-14T03:35:49;100684.28;;;13.90;61.13
72262;BME280;60173;52.112;8.648;2023-06-14T03:38:15;100691.53;;;13.95;60.93
72262;BME280;60173;52.112;8.648;2023-06-14T03:40:42;100689.16;;;14.02;60.83
72262;BME280;60173;52.112;8.648;2023-06-14T03:43:08;100697.50;;;14.06;60.80
72262;BME280;60173;52.112;8.648;2023-06-14T03:45:34;100696.81;;;13.91;60.96
72262;BME280;60173;52.112;8.648;2023-06-14T03:48:01;100694.53;;;13.85;61.14
72262;BME280;60173;52.112;8.648;2023-06-14T03:50:28;100700.16;;;13.88;61.01
72262;BME280;60173;52.112;8.648;2023-06-14T03:52:54;100704.22;;;13.99;60.92
72262;BME280;60173;52.112;8.648;2023-06-14T03:55:20;100709.28;;;14.15;60.71
72262;BME280;60173;52.112;8.648;2023-06-14T03:58:07;100708.75;;;14.04;61.53
72262;BME280;60173;52.112;8.648;2023-06-14T04:00:33;100717.88;;;13.99;61.15
72262;BME280;60173;52.112;8.648;2023-06-14T04:03:00;100710.09;;;14.15;61.00
72262;BME280;60173;52.112;8.648;2023-06-14T04:05:26;100718.66;;;14.31;59.91
72262;BME280;60173;52.112;8.648;2023-06-14T04:07:53;100725.44;;;14.42;59.71
72262;BME280;60173;52.112;8.648;2023-06-14T04:10:19;100725.84;;;14.58;59.60
72262;BME280;60173;52.112;8.648;2023-06-14T04:12:45;100719.56;;;14.58;59.44
72262;BME280;60173;52.112;8.648;2023-06-14T04:15:12;100725.22;;;14.70;59.27
72262;BME280;60173;52.112;8.648;2023-06-14T04:17:47;100728.19;;;14.51;61.44
72262;BME280;60173;52.112;8.648;2023-06-14T04:20:13;100728.09;;;14.56;59.91
72262;BME280;60173;52.112;8.648;2023-06-14T04:22:40;100737.44;;;14.64;59.38
72262;BME280;60173;52.112;8.648;2023-06-14T04:25:06;100734.72;;;14.81;58.80
72262;BME280;60173;52.112;8.648;2023-06-14T04:27:33;100732.81;;;15.08;57.72
72262;BME280;60173;52.112;8.648;2023-06-14T04:29:59;100736.34;;;15.26;57.57
72262;BME280;60173;52.112;8.648;2023-06-14T04:32:26;100730.34;;;15.76;56.02
72262;BME280;60173;52.112;8.648;2023-06-14T04:34:56;100736.19;;;15.48;56.48
72262;BME280;60173;52.112;8.648;2023-06-14T04:37:22;100739.97;;;15.91;55.84
72262;BME280;60173;52.112;8.648;2023-06-14T04:39:49;100747.88;;;15.84;55.42
72262;BME280;60173;52.112;8.648;2023-06-14T04:42:16;100748.78;;;16.05;55.36
72262;BME280;60173;52.112;8.648;2023-06-14T04:44:42;100752.88;;;15.81;56.03
72262;BME280;60173;52.112;8.648;2023-06-14T04:47:10;100754.75;;;16.07;55.46
72262;BME280;60173;52.112;8.648;2023-06-14T04:49:36;100753.66;;;15.91;55.70
72262;BME280;60173;52.112;8.648;2023-06-14T04:52:03;100757.00;;;16.05;54.90
72262;BME280;60173;52.112;8.648;2023-06-14T04:54:29;100759.72;;;16.14;55.45
72262;BME280;60173;52.112;8.648;2023-06-14T04:56:56;100764.19;;;16.27;55.14
72262;BME280;60173;52.112;8.648;2023-06-14T04:59:22;100770.28;;;16.33;55.19
72262;BME280;60173;52.112;8.648;2023-06-14T05:01:49;100761.41;;;16.36;55.02
72262;BME280;60173;52.112;8.648;2023-06-14T05:04:16;100771.78;;;16.21;55.05
72262;BME280;60173;52.112;8.648;2023-06-14T05:06:43;100767.81;;;16.01;56.01
72262;BME280;60173;52.112;8.648;2023-06-14T05:09:11;100775.53;;;16.08;55.74
72262;BME280;60173;52.112;8.648;2023-06-14T05:11:37;100768.41;;;16.54;55.31
72262;BME280;60173;52.112;8.648;2023-06-14T05:14:04;100773.97;;;16.37;55.46
72262;BME280;60173;52.112;8.648;2023-06-14T05:16:30;100776.78;;;16.58;54.67
72262;BME280;60173;52.112;8.648;2023-06-14T05:18:57;100780.59;;;16.65;54.61
72262;BME280;60173;52.112;8.648;2023-06-14T05:21:23;100780.47;;;16.62;55.54
72262;BME280;60173;52.112;8.648;2023-06-14T05:23:50;100782.66;;;16.39;55.36
72262;BME280;60173;52.112;8.648;2023-06-14T05:26:16;100772.19;;;16.70;55.21
72262;BME280;60173;52.112;8.648;2023-06-14T05:28:42;100776.69;;;16.75;54.51
72262;BME280;60173;52.112;8.648;2023-06-14T05:31:09;100782.25;;;16.19;56.10
72262;BME280;60173;52.112;8.648;2023-06-14T05:33:35;100776.13;;;16.22;56.00
72262;BME280;60173;52.112;8.648;2023-06-14T05:36:02;100773.44;;;16.82;55.06
72262;BME280;60173;52.112;8.648;2023-06-14T05:38:28;100785.16;;;16.91;54.63
72262;BME280;60173;52.112;8.648;2023-06-14T05:40:55;100776.94;;;16.91;55.30
72262;BME280;60173;52.112;8.648;2023-06-14T05:43:21;100781.69;;;16.73;55.02
72262;BME280;60173;52.112;8.648;2023-06-14T05:45:47;100782.81;;;16.81;55.08
72262;BME280;60173;52.112;8.648;2023-06-14T05:48:14;100785.91;;;16.70;55.47
72262;BME280;60173;52.112;8.648;2023-06-14T05:50:41;100795.09;;;16.36;56.46
72262;BME280;60173;52.112;8.648;2023-06-14T05:53:07;100793.56;;;16.56;56.50
72262;BME280;60173;52.112;8.648;2023-06-14T05:55:33;100800.19;;;16.55;55.70
72262;BME280;60173;52.112;8.648;2023-06-14T05:58:00;100802.41;;;16.62;56.18
72262;BME280;60173;52.112;8.648;2023-06-14T06:00:26;100799.06;;;16.86;55.67
72262;BME280;60173;52.112;8.648;2023-06-14T06:02:53;100797.41;;;16.93;55.21
72262;BME280;60173;52.112;8.648;2023-06-14T06:05:19;100809.97;;;16.94;55.33
72262;BME280;60173;52.112;8.648;2023-06-14T06:07:46;100809.78;;;16.70;55.15
72262;BME280;60173;52.112;8.648;2023-06-14T06:10:12;100810.53;;;16.88;54.70
72262;BME280;60173;52.112;8.648;2023-06-14T06:12:38;100809.66;;;16.66;55.17
72262;BME280;60173;52.112;8.648;2023-06-14T06:15:05;100804.38;;;16.91;54.81
72262;BME280;60173;52.112;8.648;2023-06-14T06:17:32;100818.09;;;16.91;55.11
72262;BME280;60173;52.112;8.648;2023-06-14T06:20:16;100818.50;;;17.02;53.57
72262;BME280;60173;52.112;8.648;2023-06-14T06:22:42;100817.13;;;17.16;54.40
72262;BME280;60173;52.112;8.648;2023-06-14T06:25:09;100822.22;;;17.48;53.52
72262;BME280;60173;52.112;8.648;2023-06-14T06:27:35;100819.13;;;17.49;53.25
72262;BME280;60173;52.112;8.648;2023-06-14T06:30:02;100823.53;;;17.21;52.68
72262;BME280;60173;52.112;8.648;2023-06-14T06:32:28;100821.94;;;17.40;52.70
72262;BME280;60173;52.112;8.648;2023-06-14T06:34:55;100820.66;;;17.80;51.93
72262;BME280;60173;52.112;8.648;2023-06-14T06:37:21;100816.63;;;18.11;50.83
72262;BME280;60173;52.112;8.648;2023-06-14T06:39:47;100821.63;;;17.75;50.50
72262;BME280;60173;52.112;8.648;2023-06-14T06:42:14;100827.00;;;17.72;51.50
72262;BME280;60173;52.112;8.648;2023-06-14T06:44:40;100819.72;;;17.55;51.05
72262;BME280;60173;52.112;8.648;2023-06-14T06:47:07;100817.09;;;17.58;50.75
72262;BME280;60173;52.112;8.648;2023-06-14T06:49:33;100820.06;;;17.32;51.50
72262;BME280;60173;52.112;8.648;2023-06-14T06:52:04;100831.50;;;17.34;52.08
72262;BME280;60173;52.112;8.648;2023-06-14T06:54:31;100835.06;;;17.35;52.07
72262;BME280;60173;52.112;8.648;2023-06-14T06:56:58;100834.41;;;17.59;52.40
72262;BME280;60173;52.112;8.648;2023-06-14T06:59:25;100834.13;;;17.94;52.51
72262;BME280;60173;52.112;8.648;2023-06-14T07:01:51;100839.53;;;18.15;51.86
72262;BME280;60173;52.112;8.648;2023-06-14T07:04:20;100837.72;;;18.31;52.07
72262;BME280;60173;52.112;8.648;2023-06-14T07:06:46;100835.41;;;18.09;52.36
72262;BME280;60173;52.112;8.648;2023-06-14T07:09:13;100846.91;;;17.69;51.72
72262;BME280;60173;52.112;8.648;2023-06-14T07:11:39;100842.81;;;17.75;51.60
72262;BME280;60173;52.112;8.648;2023-06-14T07:14:06;100842.75;;;17.62;51.66
72262;BME280;60173;52.112;8.648;2023-06-14T07:16:32;100847.38;;;17.71;53.79
72262;BME280;60173;52.112;8.648;2023-06-14T07:18:59;100845.19;;;17.85;51.36
72262;BME280;60173;52.112;8.648;2023-06-14T07:21:26;100843.75;;;17.79;51.65
72262;BME280;60173;52.112;8.648;2023-06-14T07:23:53;100854.19;;;17.65;51.30
72262;BME280;60173;52.112;8.648;2023-06-14T07:26:19;100854.22;;;17.86;51.39
72262;BME280;60173;52.112;8.648;2023-06-14T07:28:47;100852.59;;;17.63;51.79
72262;BME280;60173;52.112;8.648;2023-06-14T07:31:14;100861.34;;;17.99;50.83
72262;BME280;60173;52.112;8.648;2023-06-14T07:33:41;100853.47;;;17.97;50.37
72262;BME280;60173;52.112;8.648;2023-06-14T07:36:08;100856.63;;;17.45;51.52
72262;BME280;60173;52.112;8.648;2023-06-14T07:38:34;100851.81;;;17.84;50.15
72262;BME280;60173;52.112;8.648;2023-06-14T07:41:01;100848.69;;;18.06;50.65
72262;BME280;60173;52.112;8.648;2023-06-14T07:43:27;100854.59;;;17.96;49.55
72262;BME280;60173;52.112;8.648;2023-06-14T07:45:54;100855.09;;;18.11;48.97
72262;BME280;60173;52.112;8.648;2023-06-14T07:48:32;100853.84;;;18.08;48.61
72262;BME280;60173;52.112;8.648;2023-06-14T07:50:59;100856.34;;;18.01;49.21
72262;BME280;60173;52.112;8.648;2023-06-14T07:53:25;100858.28;;;18.00;49.58
72262;BME280;60173;52.112;8.648;2023-06-14T07:55:51;100868.44;;;18.33;49.28
72262;BME280;60173;52.112;8.648;2023-06-14T07:58:19;100847.94;;;18.30;49.03
72262;BME280;60173;52.112;8.648;2023-06-14T08:00:45;100854.19;;;18.06;49.27
72262;BME280;60173;52.112;8.648;2023-06-14T08:03:12;100867.44;;;18.50;49.25
72262;BME280;60173;52.112;8.648;2023-06-14T08:05:38;100863.38;;;18.81;48.93
72262;BME280;60173;52.112;8.648;2023-06-14T08:08:05;100866.44;;;18.67;48.72
72262;BME280;60173;52.112;8.648;2023-06-14T08:10:31;100869.88;;;18.51;48.88
72262;BME280;60173;52.112;8.648;2023-06-14T08:12:57;100869.41;;;18.49;49.04
72262;BME280;60173;52.112;8.648;2023-06-14T08:15:24;100870.91;;;18.59;49.51
72262;BME280;60173;52.112;8.648;2023-06-14T08:17:50;100869.88;;;18.64;49.89
72262;BME280;60173;52.112;8.648;2023-06-14T08:20:17;100868.53;;;18.94;48.73
72262;BME280;60173;52.112;8.648;2023-06-14T08:22:43;100864.03;;;18.07;49.65
72262;BME280;60173;52.112;8.648;2023-06-14T08:25:10;100869.88;;;18.06;49.81
72262;BME280;60173;52.112;8.648;2023-06-14T08:27:36;100867.75;;;18.36;50.18
72262;BME280;60173;52.112;8.648;2023-06-14T08:30:03;100871.41;;;18.28;49.40
72262;BME280;60173;52.112;8.648;2023-06-14T08:32:29;100861.94;;;18.38;49.85
72262;BME280;60173;52.112;8.648;2023-06-14T08:34:56;100866.25;;;18.84;50.05
72262;BME280;60173;52.112;8.648;2023-06-14T08:37:30;100867.63;;;18.78;49.23
72262;BME280;60173;52.112;8.648;2023-06-14T08:39:57;100851.84;;;18.54;50.22
72262;BME280;60173;52.112;8.648;2023-06-14T08:42:24;100865.59;;;18.42;50.14
72262;BME280;60173;52.112;8.648;2023-06-14T08:44:52;100863.16;;;18.28;50.88
72262;BME280;60173;52.112;8.648;2023-06-14T08:47:19;100855.81;;;18.78;49.94
72262;BME280;60173;52.112;8.648;2023-06-14T08:49:46;100867.25;;;18.67;49.56
72262;BME280;60173;52.112;8.648;2023-06-14T08:52:13;100865.53;;;19.12;49.28
72262;BME280;60173;52.112;8.648;2023-06-14T08:54:42;100868.97;;;19.21;48.30
72262;BME280;60173;52.112;8.648;2023-06-14T08:57:11;100871.75;;;19.21;47.55
72262;BME280;60173;52.112;8.648;2023-06-14T08:59:46;100873.78;;;19.12;47.27
72262;BME280;60173;52.112;8.648;2023-06-14T09:02:12;100866.53;;;19.44;46.96
72262;BME280;60173;52.112;8.648;2023-06-14T09:04:39;100865.13;;;19.50;48.39
72262;BME280;60173;52.112;8.648;2023-06-14T09:07:05;100871.53;;;19.54;48.37
72262;BME280;60173;52.112;8.648;2023-06-14T09:09:32;100874.00;;;19.84;47.22
72262;BME280;60173;52.112;8.648;2023-06-14T09:11:58;100872.03;;;19.84;46.53
72262;BME280;60173;52.112;8.648;2023-06-14T09:14:25;100868.94;;;20.14;46.21
72262;BME280;60173;52.112;8.648;2023-06-14T09:16:54;100871.59;;;20.26;46.54
72262;BME280;60173;52.112;8.648;2023-06-14T09:19:22;100870.06;;;20.13;45.27
72262;BME280;60173;52.112;8.648;2023-06-14T09:21:49;100876.28;;;20.10;46.14
72262;BME280;60173;52.112;8.648;2023-06-14T09:24:16;100881.22;;;19.89;46.70
72262;BME280;60173;52.112;8.648;2023-06-14T09:26:42;100873.47;;;20.22;47.34
72262;BME280;60173;52.112;8.648;2023-06-14T09:29:09;100879.19;;;20.01;45.87
72262;BME280;60173;52.112;8.648;2023-06-14T09:31:36;100877.59;;;19.72;47.18
72262;BME280;60173;52.112;8.648;2023-06-14T09:34:02;100870.75;;;19.54;47.27
72262;BME280;60173;52.112;8.648;2023-06-14T09:36:31;100879.66;;;19.75;46.30
72262;BME280;60173;52.112;8.648;2023-06-14T09:39:00;100875.19;;;19.99;46.96
72262;BME280;60173;52.112;8.648;2023-06-14T09:41:33;100880.41;;;19.88;47.07
72262;BME280;60173;52.112;8.648;2023-06-14T09:44:02;100883.50;;;19.86;45.63
72262;BME280;60173;52.112;8.648;2023-06-14T09:46:35;100878.06;;;19.62;46.64
72262;BME280;60173;52.112;8.648;2023-06-14T09:49:02;100889.81;;;20.15;46.20
72262;BME280;60173;52.112;8.648;2023-06-14T09:51:30;100877.81;;;20.67;45.93
72262;BME280;60173;52.112;8.648;2023-06-14T09:54:02;100875.41;;;20.82;44.21
72262;BME280;60173;52.112;8.648;2023-06-14T09:58:59;100884.84;;;20.65;45.11
72262;BME280;60173;52.112;8.648;2023-06-14T10:01:34;100879.00;;;20.38;46.44
72262;BME280;60173;52.112;8.648;2023-06-14T10:04:04;100879.94;;;20.90;46.00
72262;BME280;60173;52.112;8.648;2023-06-14T10:06:38;100881.69;;;20.35;46.66
72262;BME280;60173;52.112;8.648;2023-06-14T10:09:08;100877.50;;;20.41;46.41
72262;BME280;60173;52.112;8.648;2023-06-14T10:11:36;100880.31;;;20.72;46.98
72262;BME280;60173;52.112;8.648;2023-06-14T10:14:05;100868.97;;;21.29;45.17
72262;BME280;60173;52.112;8.648;2023-06-14T10:16:36;100875.00;;;21.15;44.63
72262;BME280;60173;52.112;8.648;2023-06-14T10:19:13;100872.81;;;21.40;46.19
72262;BME280;60173;52.112;8.648;2023-06-14T10:24:41;100871.91;;;20.85;45.73
72262;BME280;60173;52.112;8.648;2023-06-14T10:27:08;100862.00;;;21.51;45.01
72262;BME280;60173;52.112;8.648;2023-06-14T10:32:21;100869.16;;;21.36;46.58
72262;BME280;60173;52.112;8.648;2023-06-14T10:34:54;100863.84;;;21.11;43.56
72262;BME280;60173;52.112;8.648;2023-06-14T10:37:21;100878.16;;;20.82;43.91
72262;BME280;60173;52.112;8.648;2023-06-14T10:39:47;100863.03;;;21.27;44.34
72262;BME280;60173;52.112;8.648;2023-06-14T10:42:14;100861.72;;;21.20;42.97
72262;BME280;60173;52.112;8.648;2023-06-14T10:44:54;100864.91;;;21.22;42.46
72262;BME280;60173;52.112;8.648;2023-06-14T10:47:28;100855.75;;;21.18;43.70
72262;BME280;60173;52.112;8.648;2023-06-14T10:52:29;100855.91;;;21.26;44.75
72262;BME280;60173;52.112;8.648;2023-06-14T10:57:33;100859.78;;;21.40;43.54
72262;BME280;60173;52.112;8.648;2023-06-14T11:00:16;100855.97;;;20.94;43.73
72262;BME280;60173;52.112;8.648;2023-06-14T11:03:12;100839.38;;;21.45;43.93
72262;BME280;60173;52.112;8.648;2023-06-14T11:05:51;100838.22;;;21.65;43.40
72262;BME280;60173;52.112;8.648;2023-06-14T11:10:51;100854.78;;;22.04;41.89
72262;BME280;60173;52.112;8.648;2023-06-14T11:13:24;100846.53;;;22.27;41.43
72262;BME280;60173;52.112;8.648;2023-06-14T11:15:51;100844.34;;;21.55;43.05
72262;BME280;60173;52.112;8.648;2023-06-14T11:18:17;100838.44;;;21.57;42.94
72262;BME280;60173;52.112;8.648;2023-06-14T11:20:46;100842.97;;;21.30;43.80
72262;BME280;60173;52.112;8.648;2023-06-14T11:23:12;100833.34;;;21.59;44.46
72262;BME280;60173;52.112;8.648;2023-06-14T11:25:39;100841.41;;;21.48;43.98
72262;BME280;60173;52.112;8.648;2023-06-14T11:28:05;100845.84;;;21.17;43.72
72262;BME280;60173;52.112;8.648;2023-06-14T11:30:32;100830.72;;;21.66;42.61
72262;BME280;60173;52.112;8.648;2023-06-14T11:32:58;100825.59;;;21.29;43.56
72262;BME280;60173;52.112;8.648;2023-06-14T11:35:25;100839.50;;;21.52;42.87
72262;BME280;60173;52.112;8.648;2023-06-14T11:37:53;100824.63;;;21.57;43.15
72262;BME280;60173;52.112;8.648;2023-06-14T11:40:23;100822.41;;;21.85;42.65
72262;BME280;60173;52.112;8.648;2023-06-14T11:42:53;100820.50;;;21.89;43.39
72262;BME280;60173;52.112;8.648;2023-06-14T11:45:24;100822.94;;;21.52;42.29
72262;BME280;60173;52.112;8.648;2023-06-14T11:47:51;100821.16;;;22.22;43.63
72262;BME280;60173;52.112;8.648;2023-06-14T11:50:17;100826.84;;;22.32;42.75
72262;BME280;60173;52.112;8.648;2023-06-14T11:52:43;100825.59;;;22.53;41.95
72262;BME280;60173;52.112;8.648;2023-06-14T11:55:10;100819.00;;;22.84;41.34
72262;BME280;60173;52.112;8.648;2023-06-14T11:57:36;100837.97;;;22.59;40.83
72262;BME280;60173;52.112;8.648;2023-06-14T12:00:04;100820.03;;;22.07;41.88
72262;BME280;60173;52.112;8.648;2023-06-14T12:02:31;100831.84;;;22.46;42.56
72262;BME280;60173;52.112;8.648;2023-06-14T12:05:04;100825.84;;;22.67;41.12
72262;BME280;60173;52.112;8.648;2023-06-14T12:07:31;100820.69;;;22.92;40.93
72262;BME280;60173;52.112;8.648;2023-06-14T12:12:24;100828.13;;;22.62;41.87
72262;BME280;60173;52.112;8.648;2023-06-14T12:14:52;100816.25;;;22.15;41.34
72262;BME280;60173;52.112;8.648;2023-06-14T12:17:19;100812.91;;;22.06;42.44
72262;BME280;60173;52.112;8.648;2023-06-14T12:19:46;100825.84;;;21.79;41.58
72262;BME280;60173;52.112;8.648;2023-06-14T12:22:13;100833.72;;;21.77;42.30
72262;BME280;60173;52.112;8.648;2023-06-14T12:24:43;100825.50;;;22.03;41.27
72262;BME280;60173;52.112;8.648;2023-06-14T12:27:11;100822.50;;;22.31;40.76
72262;BME280;60173;52.112;8.648;2023-06-14T12:29:37;100816.59;;;22.83;40.53
72262;BME280;60173;52.112;8.648;2023-06-14T12:32:04;100816.06;;;22.50;40.15
72262;BME280;60173;52.112;8.648;2023-06-14T12:34:30;100818.41;;;22.02;41.47
72262;BME280;60173;52.112;8.648;2023-06-14T12:36:57;100819.09;;;21.57;42.93
72262;BME280;60173;52.112;8.648;2023-06-14T12:39:23;100819.25;;;22.26;42.47
72262;BME280;60173;52.112;8.648;2023-06-14T12:41:49;100813.28;;;22.73;41.52
72262;BME280;60173;52.112;8.648;2023-06-14T12:44:16;100816.78;;;22.70;41.63
72262;BME280;60173;52.112;8.648;2023-06-14T12:46:43;100811.34;;;23.00;40.32
72262;BME280;60173;52.112;8.648;2023-06-14T12:49:10;100808.75;;;22.88;39.91
72262;BME280;60173;52.112;8.648;2023-06-14T12:51:38;100811.66;;;23.26;40.75
72262;BME280;60173;52.112;8.648;2023-06-14T12:54:05;100813.91;;;24.14;39.16
72262;BME280;60173;52.112;8.648;2023-06-14T12:56:31;100809.44;;;24.47;38.25
72262;BME280;60173;52.112;8.648;2023-06-14T12:58:58;100811.34;;;24.39;38.64
72262;BME280;60173;52.112;8.648;2023-06-14T13:01:25;100777.94;;;24.28;39.07
72262;BME280;60173;52.112;8.648;2023-06-14T13:03:52;100811.53;;;24.57;39.11
72262;BME280;60173;52.112;8.648;2023-06-14T13:06:18;100820.22;;;24.52;37.47
72262;BME280;60173;52.112;8.648;2023-06-14T13:08:44;100816.72;;;23.46;39.78
72262;BME280;60173;52.112;8.648;2023-06-14T13:11:11;100825.00;;;23.77;39.02